Current | Forecast
Updated: 12:00 AM CET on December 13, 2017
Observed at Remada, Tunisia
Temperature 52°F
Humidity 44%
Dew Point 30°F
Wind NW at 1 mph
Pressure 30.15 in (Steady)
Conditions Clear
Visibility -
UV N/A
Clouds
Yesterday's Maximum 72°F
Yesterday's Minimum 48°F approx.
Yesterday's Heating Degree Days 5 approx.
Sunrise7:10 AM CET
Sunset5:14 PM CET
Moon Rise2:37 AM CET
Moon Set2:28 PM CET
Moon PhaseMoon Phase
Waning Crescent
Raw METARMETAR DTTD 122300Z AUTO 31001KT NCD 11/M01 Q1021


Monday
. High: 98° F.
Tuesday
. High: 102° F.
Wednesday
. High: 102° F.
Thursday
. High: 102° F.
Friday
. High: 98° F.
Saturday
. High: 98° F.
Sunday
. High: 86° F.
Monday
. High: 86° F.

Units: English | Metric

Find the Weather for any City, State or Zipcode, or Country:

U.S. State List | Severe Weather | Tropical Storms | Ski Conditions
United States | Canada | Central America | South America | Asia | Europe | Australia | Africa | Islands

Weather Underground

© Copyright 2017
The Weather Company, LLC